Terminal Aerodrome Forecast
Issued by NWS Blacksburg, VA

Home | Current Version | Previous Version | Text Only | Print | Product List | Glossary On
Versions: 1 2 3 4 5 6 7 8 9 10 11 12 13 14 15 16 17 18 19 20 21 22 23 24 25 26 27
000
FTUS41 KRNK 230051 AAA
TAFDAN
TAF AMD
KDAN 230051Z 2301/2324 00000KT 2SM BR BKN004 OVC060
     FM230800 00000KT 1/2SM FG BKN005
     FM231500 20004KT P6SM SCT060=

USA.gov is the U.S. government's official web portal to all federal, state and local government web resources and services.